Time;durP1;ratioP1;P1;durP2;ratioP2;P2;SDS_P1;SDS_P2;PMS_P1;PMS_P2;Temp;Humidity;BMP_temperature;BMP_pressure;BME280_temperature;BME280_humidity;BME280_pressure;Samples;Min_cycle;Max_cycle;Signal;HPM_P1;HPM_P2
2023/09/21 00:00:36;;;;;;;4.87;3.33;;;18.80;99.90;;;;;;5039660;28;20516;-63
2023/09/21 00:03:06;;;;;;;6.40;3.60;;;18.80;99.90;;;;;;5040077;28;20464;-62
2023/09/21 00:05:37;;;;;;;3.60;3.30;;;18.80;99.90;;;;;;5039353;28;20952;-62
2023/09/21 00:08:06;;;;;;;3.83;3.10;;;18.80;99.90;;;;;;5039916;28;20499;-63
2023/09/21 00:10:34;;;;;;;4.00;3.60;;;18.80;99.90;;;;;;5040098;28;20463;-62
2023/09/21 00:13:03;;;;;;;4.10;3.20;;;18.80;99.90;;;;;;5038796;28;20806;-62
2023/09/21 00:15:31;;;;;;;3.50;2.77;;;18.70;99.90;;;;;;5039656;28;20810;-62
2023/09/21 00:17:59;;;;;;;3.90;3.33;;;18.70;99.90;;;;;;5038786;28;20679;-62
2023/09/21 00:20:35;;;;;;;3.70;3.03;;;18.70;99.90;;;;;;5039294;28;20523;-62
2023/09/21 00:23:06;;;;;;;4.67;2.90;;;18.70;99.90;;;;;;5038322;28;20462;-62
2023/09/21 00:25:34;;;;;;;4.20;3.43;;;18.70;99.90;;;;;;5038244;28;20463;-62
2023/09/21 00:28:07;;;;;;;3.40;3.10;;;18.60;99.90;;;;;;5039262;28;20436;-62
2023/09/21 00:30:35;;;;;;;3.83;3.40;;;18.60;99.90;;;;;;5038484;28;20444;-63
2023/09/21 00:33:07;;;;;;;4.37;3.60;;;18.60;99.90;;;;;;5039581;28;20486;-62
2023/09/21 00:35:39;;;;;;;4.07;3.20;;;18.60;99.90;;;;;;5039623;28;20463;-62
2023/09/21 00:38:10;;;;;;;3.80;3.40;;;18.60;99.90;;;;;;5040058;28;20530;-62
2023/09/21 00:40:38;;;;;;;3.87;2.70;;;18.60;99.90;;;;;;5038715;28;20500;-59
2023/09/21 00:43:06;;;;;;;3.87;3.07;;;18.60;99.90;;;;;;5039665;28;20470;-63
2023/09/21 00:45:37;;;;;;;3.50;3.20;;;18.60;99.90;;;;;;5039616;28;20459;-62
2023/09/21 00:48:13;;;;;;;3.27;2.97;;;18.60;99.90;;;;;;5039829;28;20471;-62
2023/09/21 00:50:42;;;;;;;3.10;2.80;;;18.70;99.90;;;;;;5039772;28;20492;-61
2023/09/21 00:53:13;;;;;;;3.67;3.07;;;18.70;99.90;;;;;;5040365;28;20459;-62
2023/09/21 00:55:41;;;;;;;4.60;3.30;;;18.70;99.90;;;;;;5039249;28;20463;-63
2023/09/21 00:58:09;;;;;;;3.70;3.07;;;18.70;99.90;;;;;;5039449;28;20552;-62
2023/09/21 01:00:39;;;;;;;3.30;2.97;;;18.70;99.90;;;;;;5039026;28;20463;-61
2023/09/21 01:03:11;;;;;;;3.53;3.00;;;18.70;99.90;;;;;;5038638;28;20463;-62
2023/09/21 01:05:40;;;;;;;3.00;2.60;;;18.70;99.90;;;;;;5039074;28;20489;-62
2023/09/21 01:08:11;;;;;;;3.70;2.97;;;18.70;99.90;;;;;;5039067;28;20764;-62
2023/09/21 01:10:40;;;;;;;3.70;3.10;;;18.70;99.90;;;;;;5039853;28;20515;-62
2023/09/21 01:13:08;;;;;;;3.87;3.00;;;18.80;99.90;;;;;;5038143;28;20490;-62
2023/09/21 01:15:36;;;;;;;7.27;3.17;;;18.80;99.90;;;;;;5038673;28;20471;-62
2023/09/21 01:18:06;;;;;;;3.37;2.80;;;18.80;99.90;;;;;;5039252;28;20495;-62
2023/09/21 01:20:33;;;;;;;3.97;2.80;;;18.80;99.90;;;;;;5037971;28;20520;-62
2023/09/21 01:23:19;;;;;;;3.60;3.03;;;18.80;99.90;;;;;;5038135;28;20459;-61
2023/09/21 01:25:50;;;;;;;4.73;3.00;;;18.80;99.90;;;;;;5036690;28;20467;-62
2023/09/21 01:28:20;;;;;;;4.40;3.10;;;18.80;99.90;;;;;;5036582;28;20505;-62
2023/09/21 01:30:48;;;;;;;3.33;2.77;;;18.70;99.90;;;;;;5038332;28;20460;-62
2023/09/21 01:33:17;;;;;;;4.63;2.60;;;18.70;99.90;;;;;;5038815;28;20491;-62
2023/09/21 01:35:45;;;;;;;3.90;2.53;;;18.70;99.90;;;;;;5038710;28;20463;-62
2023/09/21 01:38:13;;;;;;;3.70;2.53;;;18.70;99.90;;;;;;5038234;28;20517;-62
2023/09/21 01:40:42;;;;;;;3.53;2.83;;;18.70;99.90;;;;;;5038206;28;20526;-62
2023/09/21 01:43:12;;;;;;;4.20;3.00;;;18.70;99.90;;;;;;5039043;28;20542;-62
2023/09/21 01:45:42;;;;;;;6.13;3.00;;;18.70;99.90;;;;;;5038797;28;20820;-62
2023/09/21 01:48:10;;;;;;;3.40;2.83;;;18.70;99.90;;;;;;5038977;28;20900;-62
2023/09/21 01:50:43;;;;;;;17.20;3.33;;;18.70;99.90;;;;;;5038937;28;20459;-61
2023/09/21 01:53:11;;;;;;;4.80;2.67;;;18.70;1.00;;;;;;5038651;28;20467;-63
2023/09/21 01:55:39;;;;;;;3.60;2.57;;;18.60;99.90;;;;;;5039171;28;20465;-62
2023/09/21 01:58:08;;;;;;;3.73;3.00;;;18.60;99.90;;;;;;5041548;28;20490;-62
2023/09/21 02:00:40;;;;;;;6.60;3.23;;;18.60;99.90;;;;;;5041054;28;20467;-62
2023/09/21 02:03:09;;;;;;;4.10;2.63;;;18.60;99.90;;;;;;5041596;28;20455;-60
2023/09/21 02:05:36;;;;;;;4.37;3.37;;;18.60;99.90;;;;;;5042594;28;20506;-62
2023/09/21 02:08:05;;;;;;;3.43;3.00;;;18.60;99.90;;;;;;5041646;28;20542;-62
2023/09/21 02:10:33;;;;;;;4.40;3.37;;;18.60;99.90;;;;;;5041607;28;20852;-62
2023/09/21 02:13:01;;;;;;;5.20;2.60;;;18.70;99.90;;;;;;5042443;28;20470;-62
2023/09/21 02:15:29;;;;;;;3.50;2.97;;;18.70;99.90;;;;;;5041106;28;20558;-56
2023/09/21 02:17:58;;;;;;;2.77;2.40;;;18.70;99.90;;;;;;5037745;28;20498;-56
2023/09/21 02:20:27;;;;;;;4.00;2.93;;;18.70;99.90;;;;;;5037001;28;20459;-56
2023/09/21 02:23:00;;;;;;;3.80;3.10;;;18.60;99.90;;;;;;5037586;28;20463;-56
2023/09/21 02:25:30;;;;;;;3.30;3.00;;;18.60;99.90;;;;;;5037727;28;20459;-56
2023/09/21 02:27:57;;;;;;;2.97;2.43;;;18.60;99.90;;;;;;5037345;28;20463;-56
2023/09/21 02:30:25;;;;;;;3.57;2.60;;;18.60;99.90;;;;;;5037204;28;20495;-56
2023/09/21 02:32:53;;;;;;;4.20;3.00;;;18.60;99.90;;;;;;5036712;28;20465;-56
2023/09/21 02:35:25;;;;;;;3.63;2.93;;;18.50;99.90;;;;;;5037258;28;20494;-56
2023/09/21 02:37:53;;;;;;;3.37;2.70;;;18.50;99.90;;;;;;5037508;28;20495;-57
2023/09/21 02:40:21;;;;;;;5.27;3.03;;;18.50;99.90;;;;;;5036988;28;20542;-56
2023/09/21 02:42:50;;;;;;;3.70;2.63;;;18.50;99.90;;;;;;5037528;28;20763;-56
2023/09/21 02:45:19;;;;;;;5.93;3.10;;;18.50;99.90;;;;;;5037174;28;20463;-56
2023/09/21 02:47:47;;;;;;;3.70;3.00;;;18.50;99.90;;;;;;5037365;28;20482;-56
2023/09/21 02:50:20;;;;;;;4.43;2.53;;;18.50;99.90;;;;;;5036700;28;20466;-57
2023/09/21 02:52:54;;;;;;;4.07;2.87;;;18.50;99.90;;;;;;5036899;28;20884;-56
2023/09/21 02:55:22;;;;;;;5.07;3.57;;;18.40;99.90;;;;;;5037037;28;20496;-56
2023/09/21 02:57:56;;;;;;;4.40;3.10;;;18.40;99.90;;;;;;5037167;28;20591;-55
2023/09/21 03:00:27;;;;;;;3.20;2.47;;;18.40;99.90;;;;;;5036335;28;20458;-56
2023/09/21 03:02:55;;;;;;;5.47;3.00;;;18.40;99.90;;;;;;5037035;28;20798;-57
2023/09/21 03:05:24;;;;;;;3.07;2.53;;;18.50;99.90;;;;;;5036774;28;20463;-56
2023/09/21 03:07:52;;;;;;;5.40;2.80;;;18.50;99.90;;;;;;5036567;28;20466;-55
2023/09/21 03:10:20;;;;;;;3.80;3.17;;;18.50;99.90;;;;;;5036461;28;20463;-56
2023/09/21 03:12:51;;;;;;;3.50;3.20;;;18.40;99.90;;;;;;5036486;28;20455;-55
2023/09/21 03:15:19;;;;;;;3.97;3.57;;;18.40;99.90;;;;;;5036795;28;20463;-58
2023/09/21 03:17:47;;;;;;;3.77;2.70;;;18.40;99.90;;;;;;5036502;28;20494;-56
2023/09/21 03:20:23;;;;;;;3.97;2.97;;;18.50;99.90;;;;;;5035971;28;20814;-57
2023/09/21 03:22:53;;;;;;;3.47;3.07;;;18.50;99.90;;;;;;5036439;28;20523;-56
2023/09/21 03:25:25;;;;;;;4.77;2.90;;;18.50;99.90;;;;;;5036312;28;20565;-56
2023/09/21 03:27:53;;;;;;;3.30;2.77;;;18.60;99.90;;;;;;5036394;28;20888;-57
2023/09/21 03:30:20;;;;;;;4.50;3.00;;;18.50;99.90;;;;;;5036097;28;20495;-56
2023/09/21 03:32:48;;;;;;;3.80;2.67;;;18.50;99.90;;;;;;5035930;28;20502;-57
2023/09/21 03:35:16;;;;;;;3.93;3.20;;;18.50;99.90;;;;;;5035779;28;20810;-57
2023/09/21 03:37:45;;;;;;;3.20;2.83;;;18.60;99.90;;;;;;5036261;28;20736;-57
2023/09/21 03:40:14;;;;;;;3.20;2.70;;;18.60;99.90;;;;;;5036158;28;20767;-57
2023/09/21 03:42:42;;;;;;;5.80;3.40;;;18.50;99.90;;;;;;5035911;28;20466;-57
2023/09/21 03:45:11;;;;;;;3.30;2.70;;;18.50;99.90;;;;;;5035866;28;20496;-56
2023/09/21 03:47:40;;;;;;;4.07;2.90;;;18.50;99.90;;;;;;5036001;28;20463;-56
2023/09/21 03:50:12;;;;;;;6.30;3.17;;;18.50;99.90;;;;;;5036148;28;20505;-56
2023/09/21 03:52:40;;;;;;;5.00;3.13;;;18.50;99.90;;;;;;5035776;28;20498;-57
2023/09/21 03:55:10;;;;;;;3.37;2.90;;;18.40;99.90;;;;;;5036001;28;20762;-57
2023/09/21 03:57:42;;;;;;;2.90;2.53;;;18.40;99.90;;;;;;5036195;28;20659;-54
2023/09/21 04:00:21;;;;;;;3.90;3.10;;;18.40;99.90;;;;;;5035637;28;20563;-55
2023/09/21 04:02:48;;;;;;;3.50;3.07;;;18.40;99.90;;;;;;5035881;28;20466;-54
2023/09/21 04:05:20;;;;;;;5.40;2.93;;;18.40;99.90;;;;;;5034909;28;20455;-57
2023/09/21 04:07:48;;;;;;;3.77;3.37;;;18.40;99.90;;;;;;5036102;28;20455;-57
2023/09/21 04:10:16;;;;;;;4.60;3.13;;;18.50;99.90;;;;;;5017176;28;20468;-57
2023/09/21 04:12:45;;;;;;;5.00;4.03;;;18.50;99.90;;;;;;5015727;28;20807;-58
2023/09/21 04:15:13;;;;;;;4.17;3.10;;;18.50;99.90;;;;;;5015401;28;20885;-55
2023/09/21 04:17:40;;;;;;;3.80;3.40;;;18.50;99.90;;;;;;5016356;28;20524;-57
2023/09/21 04:20:12;;;;;;;5.93;3.30;;;18.50;99.90;;;;;;5014870;28;20931;-56
2023/09/21 04:22:40;;;;;;;3.50;3.00;;;18.50;99.90;;;;;;5015649;28;20889;-57
2023/09/21 04:25:09;;;;;;;3.47;3.17;;;18.50;99.90;;;;;;5016034;28;20567;-56
2023/09/21 04:27:38;;;;;;;3.50;3.10;;;18.50;99.90;;;;;;5015668;28;20464;-56
2023/09/21 04:30:09;;;;;;;3.40;3.07;;;18.50;99.90;;;;;;5015937;28;20511;-57
2023/09/21 04:32:38;;;;;;;3.40;2.90;;;18.50;99.90;;;;;;5015304;28;20457;-57
2023/09/21 04:35:07;;;;;;;4.70;3.30;;;18.40;99.90;;;;;;5015943;28;20486;-57
2023/09/21 04:37:34;;;;;;;5.53;3.43;;;18.40;99.90;;;;;;5014766;28;20471;-56
2023/09/21 04:40:04;;;;;;;5.63;3.53;;;18.40;99.90;;;;;;5014124;28;20464;-58
2023/09/21 04:42:31;;;;;;;4.20;3.30;;;18.40;99.90;;;;;;5013801;28;20559;-57
2023/09/21 04:44:59;;;;;;;6.13;3.43;;;18.40;99.90;;;;;;5014108;28;20456;-57
2023/09/21 04:47:28;;;;;;;3.70;2.87;;;18.40;99.90;;;;;;5014013;28;20945;-57
2023/09/21 04:49:55;;;;;;;3.60;3.20;;;18.30;99.90;;;;;;5014050;28;20482;-56
2023/09/21 04:52:24;;;;;;;4.30;2.73;;;18.30;99.90;;;;;;5014207;28;20462;-56
2023/09/21 04:54:52;;;;;;;4.53;3.30;;;18.30;99.90;;;;;;5015483;28;20460;-57
2023/09/21 04:57:20;;;;;;;3.23;2.70;;;18.30;99.90;;;;;;5015726;28;20456;-56
2023/09/21 04:59:48;;;;;;;4.57;3.10;;;18.30;99.90;;;;;;5015493;28;20492;-56
2023/09/21 05:02:15;;;;;;;4.00;2.87;;;18.30;99.90;;;;;;5014727;28;20578;-56
2023/09/21 05:04:45;;;;;;;5.20;3.23;;;18.30;99.90;;;;;;5015204;28;20506;-57
2023/09/21 05:07:14;;;;;;;6.73;3.10;;;18.20;99.90;;;;;;5014688;28;20460;-56
2023/09/21 05:09:41;;;;;;;4.60;3.10;;;18.20;99.90;;;;;;5015704;28;20506;-57
2023/09/21 05:12:08;;;;;;;4.77;3.40;;;18.20;99.90;;;;;;5015278;28;20888;-56
2023/09/21 05:14:35;;;;;;;4.17;3.40;;;18.20;99.90;;;;;;5014785;28;20503;-57
2023/09/21 05:17:05;;;;;;;5.00;2.70;;;18.20;99.90;;;;;;5014800;28;20458;-56
2023/09/21 05:19:33;;;;;;;7.60;3.30;;;18.20;99.90;;;;;;5015161;28;20835;-55
2023/09/21 05:22:04;;;;;;;3.97;3.20;;;18.20;99.90;;;;;;5014898;28;20743;-58
2023/09/21 05:24:32;;;;;;;4.13;3.43;;;18.20;99.90;;;;;;5013767;28;20957;-55
2023/09/21 05:27:00;;;;;;;3.60;3.30;;;18.30;99.90;;;;;;5014671;28;20472;-55
2023/09/21 05:29:27;;;;;;;4.10;3.37;;;18.30;99.90;;;;;;5016094;28;20460;-56
2023/09/21 05:31:54;;;;;;;4.17;3.10;;;18.40;99.90;;;;;;5049780;28;20772;-56
2023/09/21 05:34:22;;;;;;;4.73;2.73;;;18.50;99.90;;;;;;5053339;28;20454;-55
2023/09/21 05:36:51;;;;;;;3.77;3.37;;;18.50;99.90;;;;;;5054410;28;20833;-56
2023/09/21 05:39:19;;;;;;;5.40;3.20;;;18.60;99.90;;;;;;5054369;28;20497;-55
2023/09/21 05:41:47;;;;;;;4.43;3.40;;;18.60;99.90;;;;;;5054381;28;20801;-57
2023/09/21 05:44:14;;;;;;;3.57;3.03;;;18.70;99.90;;;;;;5054301;28;20462;-59
2023/09/21 05:46:42;;;;;;;3.03;2.80;;;18.70;99.90;;;;;;5054244;28;20462;-57
2023/09/21 05:49:11;;;;;;;5.30;3.27;;;18.70;1.00;;;;;;5054025;28;20458;-56
2023/09/21 05:51:39;;;;;;;5.27;3.30;;;18.70;99.90;;;;;;5053780;28;20754;-56
2023/09/21 05:54:08;;;;;;;6.30;3.97;;;18.80;99.90;;;;;;5052286;28;20469;-57
2023/09/21 05:56:37;;;;;;;3.50;3.00;;;18.80;99.90;;;;;;5052933;28;20560;-57
2023/09/21 05:59:04;;;;;;;5.00;3.90;;;18.90;99.90;;;;;;5053175;28;20517;-58
2023/09/21 06:01:32;;;;;;;4.40;3.27;;;18.90;99.90;;;;;;5052982;28;20490;-57
2023/09/21 06:04:02;;;;;;;4.67;3.70;;;18.90;99.90;;;;;;5053024;28;20458;-57
2023/09/21 06:06:30;;;;;;;3.90;3.57;;;18.90;99.90;;;;;;5053538;28;20462;-57
2023/09/21 06:08:57;;;;;;;3.47;2.93;;;18.90;99.90;;;;;;5053360;28;20466;-57
2023/09/21 06:11:26;;;;;;;6.60;3.50;;;19.00;99.90;;;;;;5053520;28;20461;-57
2023/09/21 06:13:55;;;;;;;3.60;3.20;;;19.00;99.90;;;;;;5054099;28;20462;-58
2023/09/21 06:16:22;;;;;;;4.10;3.03;;;18.90;99.90;;;;;;5052526;28;20558;-57
2023/09/21 06:18:50;;;;;;;5.50;2.97;;;18.90;99.90;;;;;;5053743;28;20500;-59
2023/09/21 06:21:17;;;;;;;3.00;2.50;;;18.90;99.90;;;;;;5053670;28;20550;-57
2023/09/21 06:23:45;;;;;;;4.17;3.30;;;18.90;99.90;;;;;;5053614;28;20498;-57
2023/09/21 06:26:14;;;;;;;3.50;3.20;;;18.90;99.90;;;;;;5053618;28;20561;-57
2023/09/21 06:28:44;;;;;;;4.13;3.57;;;18.90;99.90;;;;;;5053822;28;20466;-56
2023/09/21 06:31:13;;;;;;;5.33;3.20;;;18.90;99.90;;;;;;5053446;28;20576;-57
2023/09/21 06:33:41;;;;;;;3.80;3.00;;;18.90;99.90;;;;;;5053693;28;20464;-56
2023/09/21 06:36:15;;;;;;;6.50;4.07;;;19.00;99.90;;;;;;5053719;28;20464;-58
2023/09/21 06:38:43;;;;;;;5.03;3.60;;;19.10;99.90;;;;;;5053499;28;20824;-55
2023/09/21 06:41:11;;;;;;;4.70;3.20;;;19.10;99.90;;;;;;5052851;28;20490;-58
2023/09/21 06:43:40;;;;;;;4.97;3.67;;;19.10;99.90;;;;;;5054472;28;20468;-57
2023/09/21 06:46:07;;;;;;;4.20;3.00;;;19.20;99.90;;;;;;5055469;28;20749;-57
2023/09/21 06:48:36;;;;;;;5.40;3.73;;;19.30;99.90;;;;;;5055304;28;20454;-57
2023/09/21 06:51:04;;;;;;;4.20;3.20;;;19.40;99.90;;;;;;5055384;28;20542;-57
2023/09/21 06:53:32;;;;;;;4.50;2.93;;;19.50;99.90;;;;;;5054916;28;20466;-57
2023/09/21 06:56:00;;;;;;;3.37;3.00;;;19.60;99.90;;;;;;5055180;28;20837;-58
2023/09/21 06:58:28;;;;;;;5.30;3.33;;;19.80;99.90;;;;;;5056204;28;20497;-58
2023/09/21 07:00:55;;;;;;;3.60;3.00;;;20.00;99.90;;;;;;5056662;28;20928;-57
2023/09/21 07:03:23;;;;;;;3.77;3.40;;;20.00;99.90;;;;;;5056003;28;20510;-58
2023/09/21 07:05:51;;;;;;;5.47;3.63;;;20.20;99.90;;;;;;5056612;28;20454;-58
2023/09/21 07:08:20;;;;;;;4.10;3.70;;;20.40;99.90;;;;;;5056522;28;20458;-58
2023/09/21 07:10:48;;;;;;;5.07;3.10;;;20.60;99.90;;;;;;5056697;28;20728;-58
2023/09/21 07:13:18;;;;;;;4.13;3.10;;;20.70;99.90;;;;;;5056661;28;20519;-57
2023/09/21 07:15:47;;;;;;;6.77;3.03;;;20.90;99.90;;;;;;5056467;28;20737;-56
2023/09/21 07:18:15;;;;;;;5.10;3.43;;;21.00;99.90;;;;;;5056428;28;20466;-58
2023/09/21 07:20:42;;;;;;;4.47;3.80;;;21.10;99.90;;;;;;5056229;28;20493;-57
2023/09/21 07:23:11;;;;;;;7.10;3.90;;;21.30;99.90;;;;;;5055037;28;20570;-60
2023/09/21 07:25:38;;;;;;;3.83;3.27;;;21.30;99.90;;;;;;5055538;28;20748;-57
2023/09/21 07:28:07;;;;;;;6.97;2.97;;;21.40;99.90;;;;;;5055449;28;20515;-56
2023/09/21 07:30:37;;;;;;;3.60;3.30;;;21.40;99.90;;;;;;5055713;28;20476;-58
2023/09/21 07:33:06;;;;;;;3.73;3.43;;;21.30;99.90;;;;;;5055232;28;21163;-58
2023/09/21 07:35:33;;;;;;;4.17;3.17;;;21.10;99.90;;;;;;5090557;27;20541;-57
2023/09/21 07:38:01;;;;;;;3.73;3.20;;;20.90;99.90;;;;;;5098301;27;20538;-57
2023/09/21 07:40:31;;;;;;;6.23;3.27;;;20.80;99.90;;;;;;5036262;28;20537;-58
2023/09/21 07:42:58;;;;;;;5.27;3.80;;;20.90;99.90;;;;;;5036425;28;20503;-57
2023/09/21 07:45:25;;;;;;;3.90;2.70;;;20.90;99.90;;;;;;5036086;28;20495;-57
2023/09/21 07:47:54;;;;;;;5.67;2.97;;;21.10;99.90;;;;;;5036065;28;20459;-57
2023/09/21 07:50:24;;;;;;;4.97;3.40;;;21.30;99.90;;;;;;5036381;28;20459;-59
2023/09/21 07:52:53;;;;;;;4.50;2.90;;;21.20;99.90;;;;;;5036272;28;20832;-58
2023/09/21 07:55:20;;;;;;;4.20;2.93;;;21.40;99.90;;;;;;5034749;28;20808;-58
2023/09/21 07:57:50;;;;;;;3.43;2.90;;;21.70;99.90;;;;;;5036039;28;20884;-58
2023/09/21 08:00:19;;;;;;;5.50;3.80;;;22.00;99.90;;;;;;5035933;28;20495;-58
2023/09/21 08:02:46;;;;;;;4.40;3.60;;;22.10;99.90;;;;;;5035843;28;20924;-57
2023/09/21 08:05:13;;;;;;;4.10;2.80;;;22.00;99.90;;;;;;5035927;28;20562;-57
2023/09/21 08:07:40;;;;;;;4.53;3.50;;;22.10;99.90;;;;;;5035833;28;20486;-57
2023/09/21 08:10:10;;;;;;;6.20;3.63;;;22.00;99.90;;;;;;5035570;28;20490;-57
2023/09/21 08:12:38;;;;;;;4.57;3.37;;;21.70;99.90;;;;;;5036200;28;20459;-57
2023/09/21 08:15:10;;;;;;;5.43;3.40;;;21.50;99.90;;;;;;5036124;28;20459;-58
2023/09/21 08:17:38;;;;;;;3.90;3.20;;;21.30;99.90;;;;;;5035946;28;20542;-57
2023/09/21 08:20:09;;;;;;;4.20;3.13;;;21.20;99.90;;;;;;5035561;28;21030;-58
2023/09/21 08:22:37;;;;;;;4.47;3.70;;;21.20;99.90;;;;;;5036169;28;20609;-58
2023/09/21 08:25:06;;;;;;;4.70;3.10;;;21.10;99.90;;;;;;5035942;28;20528;-59
2023/09/21 08:27:34;;;;;;;5.20;3.07;;;21.00;99.90;;;;;;5035418;28;20463;-59
2023/09/21 08:30:03;;;;;;;3.13;2.83;;;21.00;99.90;;;;;;5035201;28;20459;-58
2023/09/21 08:32:32;;;;;;;6.00;3.70;;;21.10;99.90;;;;;;5035176;28;20891;-58
2023/09/21 08:35:00;;;;;;;5.60;3.50;;;21.00;99.90;;;;;;5034702;28;20463;-59
2023/09/21 08:37:28;;;;;;;5.17;3.70;;;21.10;99.90;;;;;;5032705;28;20475;-58
2023/09/21 08:39:57;;;;;;;5.37;3.50;;;21.00;99.90;;;;;;5035755;28;20504;-58
2023/09/21 08:42:25;;;;;;;3.53;3.20;;;21.10;99.90;;;;;;5034042;28;20511;-59
2023/09/21 08:44:52;;;;;;;6.10;3.10;;;21.20;99.90;;;;;;5033697;28;20569;-58
2023/09/21 08:47:20;;;;;;;4.03;3.37;;;21.20;99.90;;;;;;5034202;28;20459;-58
2023/09/21 08:49:49;;;;;;;4.90;3.17;;;21.30;99.90;;;;;;5032962;28;20550;-58
2023/09/21 08:52:17;;;;;;;6.30;3.47;;;21.30;99.90;;;;;;5032622;28;20542;-58
2023/09/21 08:54:46;;;;;;;3.83;3.13;;;21.40;99.90;;;;;;5032129;28;20956;-57
2023/09/21 08:57:14;;;;;;;4.03;3.63;;;21.50;99.90;;;;;;5031150;28;20471;-59
2023/09/21 08:59:42;;;;;;;5.17;3.27;;;21.60;99.90;;;;;;5032493;28;21053;-58
2023/09/21 09:02:14;;;;;;;4.83;3.50;;;21.70;99.90;;;;;;5033673;28;20491;-60
2023/09/21 09:04:42;;;;;;;4.20;3.40;;;21.60;99.90;;;;;;5033292;28;20464;-58
2023/09/21 09:07:12;;;;;;;4.20;3.80;;;21.80;99.90;;;;;;5033837;28;20463;-59
2023/09/21 09:09:40;;;;;;;3.70;3.30;;;21.90;99.90;;;;;;5034424;28;20463;-58
2023/09/21 09:12:22;;;;;;;6.10;3.67;;;21.90;99.90;;;;;;5034794;28;20499;-58
2023/09/21 09:14:50;;;;;;;4.93;3.37;;;22.00;99.90;;;;;;5035034;28;20459;-59
2023/09/21 09:17:18;;;;;;;4.67;3.03;;;22.20;99.90;;;;;;5034691;28;20493;-58
2023/09/21 09:19:46;;;;;;;4.60;3.27;;;22.50;99.90;;;;;;5034076;28;20989;-58
2023/09/21 09:22:16;;;;;;;4.47;3.03;;;22.80;99.90;;;;;;5033274;28;20499;-57
2023/09/21 09:24:47;;;;;;;4.67;3.50;;;22.90;99.90;;;;;;5033811;28;20549;-58
2023/09/21 09:27:14;;;;;;;4.63;3.50;;;22.80;99.90;;;;;;5033720;28;20529;-58
2023/09/21 09:29:48;;;;;;;3.43;3.10;;;22.90;99.90;;;;;;5032885;28;20461;-58
2023/09/21 09:32:18;;;;;;;3.73;3.43;;;23.00;99.90;;;;;;5033477;28;20462;-57
2023/09/21 09:34:46;;;;;;;4.67;3.20;;;22.80;99.90;;;;;;5033963;28;20467;-58
2023/09/21 09:37:15;;;;;;;4.07;3.13;;;22.80;99.90;;;;;;5034278;28;20463;-62
2023/09/21 09:39:44;;;;;;;3.83;3.37;;;22.70;99.90;;;;;;5033992;28;20497;-57
2023/09/21 09:42:13;;;;;;;4.53;3.50;;;22.70;99.90;;;;;;5034799;28;20759;-58
2023/09/21 09:44:44;;;;;;;6.23;4.33;;;22.70;99.90;;;;;;5034180;28;20467;-60
2023/09/21 09:47:12;;;;;;;4.33;3.33;;;22.50;99.90;;;;;;5033959;28;20884;-57
2023/09/21 09:49:44;;;;;;;3.77;3.37;;;22.50;99.90;;;;;;5034097;28;20482;-59
2023/09/21 09:52:13;;;;;;;6.73;3.87;;;22.60;99.90;;;;;;5034605;28;20459;-60
2023/09/21 09:54:42;;;;;;;6.20;3.63;;;22.70;99.90;;;;;;5034251;28;20492;-58
2023/09/21 09:57:13;;;;;;;4.60;3.57;;;22.90;99.90;;;;;;5033821;28;20462;-58
2023/09/21 09:59:42;;;;;;;3.73;3.40;;;22.90;99.90;;;;;;5033865;28;20579;-58
2023/09/21 10:02:14;;;;;;;3.97;3.23;;;22.80;99.90;;;;;;5033731;28;20779;-57
2023/09/21 10:04:41;;;;;;;4.83;3.60;;;22.90;99.90;;;;;;5034058;28;20469;-58
2023/09/21 10:07:10;;;;;;;3.90;3.27;;;23.10;99.90;;;;;;5032872;28;20459;-58
2023/09/21 10:09:38;;;;;;;4.73;3.37;;;23.30;99.90;;;;;;5033666;28;20474;-57
2023/09/21 10:12:07;;;;;;;4.40;3.13;;;23.40;99.90;;;;;;5034281;28;20460;-57
2023/09/21 10:14:42;;;;;;;4.37;3.97;;;23.50;99.90;;;;;;5034233;28;20561;-58
2023/09/21 10:17:10;;;;;;;5.40;3.60;;;23.20;99.90;;;;;;5034487;28;20463;-58
2023/09/21 10:19:39;;;;;;;6.47;3.83;;;23.00;99.90;;;;;;5036278;28;20541;-59
2023/09/21 10:22:26;;;;;;;5.30;3.77;;;22.80;99.90;;;;;;5036086;28;20948;-58
2023/09/21 10:24:58;;;;;;;5.40;3.47;;;22.70;99.90;;;;;;5125129;27;20534;-58
2023/09/21 10:27:28;;;;;;;6.47;3.50;;;22.80;99.90;;;;;;5139244;27;20454;-58
2023/09/21 10:30:06;;;;;;;5.47;3.60;;;22.80;99.90;;;;;;5140036;27;20965;-59
2023/09/21 10:32:42;;;;;;;5.70;3.90;;;22.50;99.90;;;;;;5036704;27;20471;-59
2023/09/21 10:35:14;;;;;;;6.80;4.03;;;22.30;99.90;;;;;;5016584;28;20456;-58
2023/09/21 10:37:41;;;;;;;3.77;3.00;;;22.40;99.90;;;;;;5017462;28;20434;-59
2023/09/21 10:40:15;;;;;;;8.00;3.73;;;22.40;99.90;;;;;;5017437;28;20590;-58
2023/09/21 10:42:43;;;;;;;4.90;3.27;;;22.50;99.90;;;;;;5017678;28;20509;-57
2023/09/21 10:45:11;;;;;;;3.83;3.40;;;22.60;99.90;;;;;;5024701;28;20470;-58
2023/09/21 10:47:47;;;;;;;3.80;3.40;;;22.50;99.90;;;;;;5036709;28;20459;-58
2023/09/21 10:50:18;;;;;;;6.80;3.50;;;22.50;99.90;;;;;;5035818;28;20458;-59
2023/09/21 10:52:48;;;;;;;3.63;3.33;;;22.50;99.90;;;;;;5037237;28;20467;-58
2023/09/21 10:55:17;;;;;;;4.20;3.77;;;22.50;99.90;;;;;;5036908;28;20462;-58
2023/09/21 10:57:47;;;;;;;5.57;3.40;;;22.90;99.90;;;;;;5034909;28;20483;-58
2023/09/21 11:00:21;;;;;;;5.07;3.47;;;23.30;99.90;;;;;;5035924;28;20883;-57
2023/09/21 11:02:49;;;;;;;4.30;3.27;;;23.60;99.90;;;;;;5035395;28;20451;-58
2023/09/21 11:05:18;;;;;;;4.03;3.60;;;23.80;1.00;;;;;;5035975;28;20919;-58
2023/09/21 11:07:48;;;;;;;4.07;3.60;;;23.90;99.90;;;;;;5034235;28;20759;-59
2023/09/21 11:10:16;;;;;;;6.73;4.10;;;23.70;99.90;;;;;;5033650;28;20451;-58
2023/09/21 11:12:45;;;;;;;3.53;3.20;;;23.30;99.90;;;;;;5033692;28;20943;-59
2023/09/21 11:15:14;;;;;;;4.90;3.97;;;23.20;99.90;;;;;;5034435;28;20880;-57
2023/09/21 11:17:43;;;;;;;4.07;3.67;;;23.10;99.90;;;;;;5034221;28;20475;-58
2023/09/21 11:20:14;;;;;;;3.60;3.30;;;22.90;99.90;;;;;;5034456;28;20540;-58
2023/09/21 11:22:42;;;;;;;4.20;3.30;;;23.00;99.90;;;;;;5036006;28;20459;-58
2023/09/21 11:25:11;;;;;;;4.83;3.70;;;23.20;99.90;;;;;;5035750;28;20459;-58
2023/09/21 11:27:40;;;;;;;4.00;3.63;;;23.40;99.90;;;;;;5036331;28;20516;-59
2023/09/21 11:30:10;;;;;;;4.27;3.30;;;23.70;1.00;;;;;;5031448;28;20478;-58
2023/09/21 11:32:43;;;;;;;4.03;3.63;;;23.80;99.90;;;;;;5036058;28;20767;-59
2023/09/21 11:35:11;;;;;;;3.83;3.53;;;23.70;99.90;;;;;;5035672;28;20868;-57
2023/09/21 11:37:38;;;;;;;4.00;3.03;;;23.60;99.90;;;;;;5036410;28;20737;-58
2023/09/21 11:40:11;;;;;;;4.00;3.57;;;23.30;99.90;;;;;;5036321;28;20495;-58
2023/09/21 11:42:43;;;;;;;5.73;3.70;;;23.20;99.90;;;;;;5036781;28;20880;-58
2023/09/21 11:45:17;;;;;;;8.93;3.77;;;23.40;99.90;;;;;;5035039;28;20546;-58
2023/09/21 11:47:48;;;;;;;3.83;3.20;;;23.70;99.90;;;;;;5036225;28;20504;-58
2023/09/21 11:50:20;;;;;;;11.33;3.47;;;24.10;99.90;;;;;;5035076;28;20462;-58
2023/09/21 11:52:51;;;;;;;5.43;3.43;;;24.50;1.00;;;;;;5036498;28;20469;-58
2023/09/21 11:55:19;;;;;;;4.10;3.37;;;24.30;1.00;;;;;;5035922;28;20502;-57
2023/09/21 11:57:46;;;;;;;3.33;3.03;;;23.80;1.00;;;;;;5036103;28;20470;-57
2023/09/21 12:00:26;;;;;;;4.40;4.00;;;23.50;1.00;;;;;;5036166;28;20491;-58
2023/09/21 12:02:54;;;;;;;4.30;3.90;;;23.30;1.00;;;;;;5099537;28;20742;-58
2023/09/21 12:05:21;;;;;;;4.17;3.20;;;23.20;1.00;;;;;;5099055;28;21018;-58
2023/09/21 12:07:49;;;;;;;3.60;3.23;;;23.10;99.90;;;;;;5099210;28;20548;-59
2023/09/21 12:10:17;;;;;;;4.77;3.47;;;23.20;99.90;;;;;;5099071;28;20455;-59
2023/09/21 12:12:48;;;;;;;6.83;3.90;;;23.20;1.00;;;;;;5098653;28;20431;-58
2023/09/21 12:15:17;;;;;;;5.60;4.00;;;23.20;99.90;;;;;;5097686;28;20453;-58
2023/09/21 12:17:45;;;;;;;4.93;3.50;;;23.20;1.00;;;;;;5097407;28;20466;-59
2023/09/21 12:20:17;;;;;;;7.30;4.00;;;23.30;1.00;;;;;;5098124;28;20906;-59
2023/09/21 12:22:45;;;;;;;4.93;3.03;;;23.40;1.00;;;;;;5098557;28;20460;-58
2023/09/21 12:25:14;;;;;;;5.13;3.70;;;23.40;99.90;;;;;;5097794;28;20460;-59
2023/09/21 12:27:45;;;;;;;4.53;3.77;;;23.30;99.90;;;;;;5098356;28;20495;-58
2023/09/21 12:30:14;;;;;;;3.40;3.10;;;23.30;99.90;;;;;;5096097;28;20434;-59
2023/09/21 12:32:43;;;;;;;7.33;3.43;;;23.10;1.00;;;;;;5098355;28;20913;-59
2023/09/21 12:35:12;;;;;;;5.60;4.00;;;22.80;99.90;;;;;;5098020;28;20442;-58
2023/09/21 12:37:40;;;;;;;6.07;3.97;;;22.50;1.00;;;;;;5097997;28;20456;-58
2023/09/21 12:40:11;;;;;;;4.37;3.70;;;22.40;1.00;;;;;;5097526;28;20767;-58
2023/09/21 12:42:41;;;;;;;5.13;3.80;;;22.40;1.00;;;;;;5098806;28;20555;-57
2023/09/21 12:45:11;;;;;;;12.17;6.03;;;22.30;1.00;;;;;;5097935;28;20554;-58
2023/09/21 12:47:39;;;;;;;6.77;3.67;;;22.20;1.00;;;;;;5097412;28;20491;-58
2023/09/21 12:50:09;;;;;;;5.73;3.97;;;22.20;1.00;;;;;;5096694;28;20499;-58
2023/09/21 12:52:36;;;;;;;4.70;4.03;;;22.30;1.00;;;;;;5097147;28;20488;-58
2023/09/21 12:55:05;;;;;;;5.80;4.00;;;22.10;1.00;;;;;;5096552;28;20828;-59
2023/09/21 12:57:34;;;;;;;5.10;4.53;;;22.10;1.00;;;;;;5095490;28;20459;-59